createdAt,value
2023-03-23T00:01:23.344Z,97782.69
2023-03-23T00:04:33.362Z,97780.06
2023-03-23T00:07:39.578Z,97784.59
2023-03-23T00:10:46.273Z,97777.66
2023-03-23T00:13:55.169Z,97781.97
2023-03-23T00:17:01.764Z,97765.41
2023-03-23T00:20:13.134Z,97778.16
2023-03-23T00:23:22.061Z,97769.50
2023-03-23T00:26:29.806Z,97773.78
2023-03-23T00:29:56.730Z,97769.34
2023-03-23T00:33:02.586Z,97783.50
2023-03-23T00:36:14.261Z,97770.91
2023-03-23T00:39:20.976Z,97774.13
2023-03-23T00:42:29.842Z,97766.47
2023-03-23T00:45:36.137Z,97765.00
2023-03-23T00:48:46.095Z,97776.88
2023-03-23T00:51:55.895Z,97768.25
2023-03-23T00:55:03.414Z,97771.13
2023-03-23T00:58:09.049Z,97749.31
2023-03-23T01:01:17.180Z,97755.81
2023-03-23T01:04:23.410Z,97751.94
2023-03-23T01:07:32.997Z,97742.63
2023-03-23T01:10:40.868Z,97751.22
2023-03-23T01:13:48.393Z,97737.22
2023-03-23T01:16:53.998Z,97748.25
2023-03-23T01:20:00.743Z,97745.75
2023-03-23T01:23:09.956Z,97748.13
2023-03-23T01:26:21.231Z,97752.34
2023-03-23T01:29:27.084Z,97728.41
2023-03-23T01:32:33.789Z,97745.53
2023-03-23T01:35:42.910Z,97744.69
2023-03-23T01:38:55.276Z,97746.97
2023-03-23T01:42:01.072Z,97741.72
2023-03-23T01:45:33.684Z,97742.66
2023-03-23T01:48:43.223Z,97743.38
2023-03-23T01:51:57.442Z,97741.94
2023-03-23T01:55:08.660Z,97738.34
2023-03-23T01:58:17.170Z,97742.53
2023-03-23T02:01:26.173Z,97730.44
2023-03-23T02:04:37.774Z,97732.38
2023-03-23T02:07:44.525Z,97717.53
2023-03-23T02:10:54.063Z,97723.50
2023-03-23T02:14:00.418Z,97714.66
2023-03-23T02:17:15.208Z,97657.56
2023-03-23T02:21:01.011Z,97707.94
2023-03-23T02:25:01.441Z,97713.09
2023-03-23T02:28:56.285Z,97713.47
2023-03-23T02:32:20.756Z,97714.19
2023-03-23T02:35:40.234Z,97699.81
2023-03-23T02:39:01.652Z,97712.28
2023-03-23T02:42:13.521Z,97704.94
2023-03-23T02:45:27.464Z,97704.59
2023-03-23T02:48:35.884Z,97690.22
2023-03-23T02:51:52.402Z,97696.72
2023-03-23T02:55:03.025Z,97690.69
2023-03-23T02:58:10.438Z,97699.34
2023-03-23T03:02:02.018Z,97712.00
2023-03-23T03:05:26.722Z,97713.69
2023-03-23T03:08:50.595Z,97692.63
2023-03-23T03:12:12.479Z,97691.69
2023-03-23T03:15:33.044Z,97685.69
2023-03-23T03:18:52.461Z,97683.06
2023-03-23T03:22:03.934Z,97684.97
2023-03-23T03:25:21.759Z,97679.97
2023-03-23T03:28:30.051Z,97673.84
2023-03-23T03:31:46.516Z,97679.47
2023-03-23T03:34:53.665Z,97676.34
2023-03-23T03:38:01.834Z,97676.34
2023-03-23T03:41:10.554Z,97676.72
2023-03-23T03:44:17.997Z,97630.78
2023-03-23T03:47:23.783Z,97675.41
2023-03-23T03:50:30.767Z,97685.69
2023-03-23T03:53:37.366Z,97689.53
2023-03-23T03:56:48.016Z,97687.84
2023-03-23T04:00:41.437Z,97698.59
2023-03-23T04:03:49.216Z,97697.66
2023-03-23T04:07:06.496Z,97688.06
2023-03-23T04:10:16.050Z,97689.53
2023-03-23T04:13:42.475Z,97682.56
2023-03-23T04:17:00.289Z,97682.22
2023-03-23T04:20:08.714Z,97682.09
2023-03-23T04:23:15.518Z,97671.81
2023-03-23T04:26:23.559Z,97678.75
2023-03-23T04:29:35.300Z,97679.94
2023-03-23T04:32:45.021Z,97672.28
2023-03-23T04:35:56.623Z,97673.72
2023-03-23T04:39:12.709Z,97670.38
2023-03-23T04:42:19.811Z,97671.09
2023-03-23T04:45:47.266Z,97671.78
2023-03-23T04:48:56.307Z,97677.53
2023-03-23T04:52:07.254Z,97656.97
2023-03-23T04:55:23.899Z,97673.97
2023-03-23T04:58:36.227Z,97685.94
2023-03-23T05:02:14.612Z,97683.66
2023-03-23T05:05:26.217Z,97683.53
2023-03-23T05:08:35.479Z,97689.53
2023-03-23T05:11:41.355Z,97686.66
2023-03-23T05:14:48.369Z,97667.00
2023-03-23T05:18:00.519Z,97673.25
2023-03-23T05:21:08.436Z,97680.78
2023-03-23T05:24:19.052Z,97685.81
2023-03-23T05:27:31.554Z,97674.19
2023-03-23T05:30:45.513Z,97678.72
2023-03-23T05:33:56.899Z,97684.41
2023-03-23T05:37:11.007Z,97679.47
2023-03-23T05:40:31.463Z,97682.09
2023-03-23T05:43:47.454Z,97667.22
2023-03-23T05:46:54.393Z,97676.66
2023-03-23T05:50:03.821Z,97680.22
2023-03-23T05:53:12.627Z,97682.13
2023-03-23T05:56:19.670Z,97691.66
2023-03-23T05:59:44.463Z,97683.91
2023-03-23T06:03:00.585Z,97691.75
2023-03-23T06:06:17.809Z,97689.84
2023-03-23T06:09:42.404Z,97686.56
2023-03-23T06:13:05.265Z,97681.47
2023-03-23T06:16:17.595Z,97690.88
2023-03-23T06:19:33.507Z,97684.88
2023-03-23T06:22:49.317Z,97681.69
2023-03-23T06:26:10.122Z,97681.91
2023-03-23T06:29:18.455Z,97672.78
2023-03-23T06:32:33.561Z,97686.16
2023-03-23T06:35:41.063Z,97690.19
2023-03-23T06:39:05.513Z,97687.75
2023-03-23T06:42:28.326Z,97681.22
2023-03-23T06:45:55.591Z,97685.47
2023-03-23T06:49:16.515Z,97686.94
2023-03-23T06:52:31.141Z,97694.19
2023-03-23T06:55:40.542Z,97685.53
2023-03-23T06:58:48.136Z,97690.28
2023-03-23T07:01:54.137Z,97698.41
2023-03-23T07:05:01.716Z,97702.09
2023-03-23T07:08:09.006Z,97697.78
2023-03-23T07:11:33.876Z,97696.28
2023-03-23T07:14:45.465Z,97698.94
2023-03-23T07:17:53.021Z,97703.22
2023-03-23T07:21:11.820Z,97703.81
2023-03-23T07:24:20.786Z,97703.28
2023-03-23T07:27:43.093Z,97703.81
2023-03-23T07:30:50.438Z,97701.59
2023-03-23T07:33:56.869Z,97706.03
2023-03-23T07:37:09.411Z,97720.25
2023-03-23T07:40:19.355Z,97707.63
2023-03-23T07:43:34.494Z,97708.88
2023-03-23T07:46:58.972Z,97716.97
2023-03-23T07:50:13.819Z,97716.97
2023-03-23T07:53:22.713Z,97698.88
2023-03-23T07:56:36.667Z,97693.56
2023-03-23T07:59:54.143Z,97713.34
2023-03-23T08:03:03.988Z,97709.44
2023-03-23T08:06:16.712Z,97711.13
2023-03-23T08:10:14.798Z,97696.78
2023-03-23T08:13:40.667Z,97698.44
2023-03-23T08:16:56.575Z,97699.72
2023-03-23T08:20:18.405Z,97694.13
2023-03-23T08:24:09.509Z,97696.06
2023-03-23T08:27:32.055Z,97687.44
2023-03-23T08:31:28.675Z,97689.69
2023-03-23T08:34:54.417Z,97683.84
2023-03-23T08:38:57.004Z,97675.06
2023-03-23T08:42:30.572Z,97672.94
2023-03-23T08:45:40.760Z,97692.19
2023-03-23T08:49:19.145Z,97687.81
2023-03-23T08:53:22.120Z,97666.25
2023-03-23T08:56:28.678Z,97673.66
2023-03-23T08:59:44.076Z,97675.25
2023-03-23T09:03:11.555Z,97675.19
2023-03-23T09:06:40.822Z,97657.84
2023-03-23T09:09:49.890Z,97684.47
2023-03-23T09:12:58.610Z,97684.19
2023-03-23T09:16:05.360Z,97681.75
2023-03-23T09:19:14.136Z,97660.22
2023-03-23T09:22:24.540Z,97650.06
2023-03-23T09:25:35.131Z,97668.91
2023-03-23T09:28:41.109Z,97664.81
2023-03-23T09:31:47.977Z,97669.28
2023-03-23T09:34:56.533Z,97661.31
2023-03-23T09:38:04.392Z,97663.38
2023-03-23T09:41:38.366Z,97683.34
2023-03-23T09:45:07.276Z,97678.06
2023-03-23T09:48:42.497Z,97669.81
2023-03-23T09:51:56.859Z,97676.78
2023-03-23T09:55:04.061Z,97662.56
2023-03-23T09:58:29.194Z,97664.63
2023-03-23T10:01:44.021Z,97647.34
2023-03-23T10:04:54.436Z,97653.75
2023-03-23T10:08:01.311Z,97652.56
2023-03-23T10:11:16.737Z,97644.72
2023-03-23T10:14:42.017Z,97640.69
2023-03-23T10:17:58.576Z,97641.75
2023-03-23T10:21:06.307Z,97587.78
2023-03-23T10:24:19.696Z,97632.44
2023-03-23T10:27:37.853Z,97634.16
2023-03-23T10:30:55.876Z,97621.88
2023-03-23T10:34:13.216Z,97621.28
2023-03-23T10:37:29.165Z,97628.03
2023-03-23T10:40:36.792Z,97601.06
2023-03-23T10:43:44.463Z,97596.00
2023-03-23T10:47:04.177Z,97612.97
2023-03-23T10:50:21.430Z,97629.94
2023-03-23T10:53:36.736Z,97621.22
2023-03-23T10:56:58.825Z,97522.78
2023-03-23T11:00:11.692Z,97533.06
2023-03-23T11:03:43.782Z,97639.72
2023-03-23T11:06:55.422Z,97621.63
2023-03-23T11:10:20.610Z,97640.91
2023-03-23T11:13:34.047Z,97653.34
2023-03-23T11:16:49.664Z,97660.31
2023-03-23T11:19:58.800Z,97635.63
2023-03-23T11:23:06.478Z,97640.66
2023-03-23T11:26:19.892Z,97640.91
2023-03-23T11:29:30.637Z,97647.47
2023-03-23T11:32:37.401Z,97643.28
2023-03-23T11:35:50.584Z,97645.94
2023-03-23T11:39:06.376Z,97636.59
2023-03-23T11:42:23.933Z,97641.31
2023-03-23T11:45:38.978Z,97649.72
2023-03-23T11:48:59.998Z,97641.09
2023-03-23T11:52:26.954Z,97633.81
2023-03-23T11:56:00.299Z,97646.50
2023-03-23T11:59:07.964Z,97630.03
2023-03-23T12:02:46.641Z,97624.59
2023-03-23T12:06:17.520Z,97636.56
2023-03-23T12:09:48.212Z,97628.00
2023-03-23T12:13:20.750Z,97627.66
2023-03-23T12:16:46.610Z,97622.09
2023-03-23T12:20:16.049Z,97624.13
2023-03-23T12:23:33.647Z,97626.78
2023-03-23T12:26:55.438Z,97623.97
2023-03-23T12:30:23.930Z,97622.97
2023-03-23T12:33:50.037Z,97610.81
2023-03-23T12:37:23.875Z,97608.75
2023-03-23T12:40:53.830Z,97599.81
2023-03-23T12:44:14.465Z,97615.81
2023-03-23T12:47:40.948Z,97599.81
2023-03-23T12:51:12.396Z,97628.44
2023-03-23T12:54:30.844Z,97620.44
2023-03-23T12:57:45.998Z,97618.09
2023-03-23T13:01:05.702Z,97623.91
2023-03-23T13:04:20.190Z,97624.75
2023-03-23T13:07:34.972Z,97624.75
2023-03-23T13:10:49.747Z,97625.06
2023-03-23T13:14:03.622Z,97624.56
2023-03-23T13:17:29.106Z,97620.91
2023-03-23T13:21:04.567Z,97610.25
2023-03-23T13:24:25.445Z,97623.75
2023-03-23T13:27:33.817Z,97596.44
2023-03-23T13:30:40.468Z,97604.56
2023-03-23T13:34:02.095Z,97588.13
2023-03-23T13:37:16.624Z,97531.88
2023-03-23T13:40:33.032Z,97591.84
2023-03-23T13:43:42.905Z,97588.16
2023-03-23T13:47:00.832Z,97589.16
2023-03-23T13:50:30.910Z,97585.50
2023-03-23T13:53:50.596Z,97580.00
2023-03-23T13:57:02.311Z,97549.22
2023-03-23T14:00:39.885Z,97579.84
2023-03-23T14:03:54.441Z,97583.84
2023-03-23T14:07:16.200Z,97578.50
2023-03-23T14:10:23.134Z,97573.50
2023-03-23T14:13:37.977Z,97580.47
2023-03-23T14:16:47.756Z,97513.78
2023-03-23T14:19:57.379Z,97578.50
2023-03-23T14:23:24.081Z,97578.84
2023-03-23T14:26:29.861Z,97588.19
2023-03-23T14:29:36.750Z,97591.50
2023-03-23T14:32:42.861Z,97577.84
2023-03-23T14:35:50.636Z,97577.69
2023-03-23T14:39:22.684Z,97568.22
2023-03-23T14:42:35.777Z,97583.50
2023-03-23T14:45:43.604Z,97570.03
2023-03-23T14:48:50.568Z,97573.50
2023-03-23T14:51:58.979Z,97571.22
2023-03-23T14:55:18.803Z,97570.19
2023-03-23T14:58:27.699Z,97572.50
2023-03-23T15:01:39.808Z,97582.00
2023-03-23T15:04:51.878Z,97576.00
2023-03-23T15:08:07.731Z,97515.56
2023-03-23T15:11:32.888Z,97575.19
2023-03-23T15:14:51.747Z,97582.19
2023-03-23T15:17:59.020Z,97576.03
2023-03-23T15:21:22.982Z,97585.84
2023-03-23T15:24:40.906Z,97570.19
2023-03-23T15:27:57.372Z,97572.72
2023-03-23T15:31:10.580Z,97571.34
2023-03-23T15:34:30.007Z,97566.22
2023-03-23T15:37:47.041Z,97561.38
2023-03-23T15:40:57.178Z,97557.06
2023-03-23T15:44:16.745Z,97553.03
2023-03-23T15:47:25.466Z,97562.19
2023-03-23T15:50:39.737Z,97549.91
2023-03-23T15:53:47.166Z,97558.88
2023-03-23T15:56:53.184Z,97557.53
2023-03-23T16:00:02.917Z,97566.88
2023-03-23T16:03:28.018Z,97415.22
2023-03-23T16:06:39.011Z,97575.88
2023-03-23T16:09:46.440Z,97581.50
2023-03-23T16:12:53.943Z,97582.47
2023-03-23T16:16:03.306Z,97594.41
2023-03-23T16:19:10.489Z,97601.88
2023-03-23T16:22:17.258Z,97599.06
2023-03-23T16:25:25.399Z,97600.00
2023-03-23T16:28:31.177Z,97601.00
2023-03-23T16:31:40.729Z,97605.31
2023-03-23T16:34:46.661Z,97599.13
2023-03-23T16:38:07.008Z,97610.41
2023-03-23T16:41:14.269Z,97605.22
2023-03-23T16:44:21.179Z,97622.13
2023-03-23T16:47:29.729Z,97611.50
2023-03-23T16:50:37.492Z,97613.16
2023-03-23T16:53:43.320Z,97605.03
2023-03-23T16:56:49.868Z,97603.19
2023-03-23T16:59:58.800Z,97605.03
2023-03-23T17:03:08.534Z,97609.19
2023-03-23T17:06:14.647Z,97600.53
2023-03-23T17:09:21.825Z,97610.66
2023-03-23T17:12:30.610Z,97605.38
2023-03-23T17:15:41.016Z,97613.88
2023-03-23T17:18:49.639Z,97613.72
2023-03-23T17:21:56.199Z,97609.19
2023-03-23T17:25:02.527Z,97618.06
2023-03-23T17:28:09.538Z,97610.88
2023-03-23T17:31:15.380Z,97617.47
2023-03-23T17:34:25.155Z,97623.22
2023-03-23T17:37:30.884Z,97629.38
2023-03-23T17:40:37.549Z,97625.31
2023-03-23T17:43:44.048Z,97626.81
2023-03-23T17:46:50.585Z,97609.22
2023-03-23T17:49:59.189Z,97587.47
2023-03-23T17:53:05.857Z,97592.44
2023-03-23T17:56:13.315Z,97606.72
2023-03-23T17:59:19.989Z,97606.50
2023-03-23T18:02:25.913Z,97612.28
2023-03-23T18:05:35.298Z,97628.06
2023-03-23T18:08:42.211Z,97620.06
2023-03-23T18:11:49.511Z,97639.63
2023-03-23T18:14:59.874Z,97648.25
2023-03-23T18:18:08.807Z,97662.84
2023-03-23T18:21:17.714Z,97650.84
2023-03-23T18:24:24.614Z,97654.16
2023-03-23T18:27:30.870Z,97658.13
2023-03-23T18:30:38.814Z,97623.69
2023-03-23T18:33:47.089Z,97664.38
2023-03-23T18:36:56.780Z,97670.28
2023-03-23T18:40:02.677Z,97666.25
2023-03-23T18:43:10.058Z,97667.09
2023-03-23T18:46:16.756Z,97658.28
2023-03-23T18:49:24.075Z,97650.19
2023-03-23T18:52:34.342Z,97662.53
2023-03-23T18:55:41.502Z,97657.75
2023-03-23T18:58:49.061Z,97658.44
2023-03-23T19:01:55.907Z,97647.16
2023-03-23T19:05:02.125Z,97644.19
2023-03-23T19:08:13.816Z,97643.88
2023-03-23T19:11:21.399Z,97620.53
2023-03-23T19:14:28.412Z,97656.38
2023-03-23T19:17:34.369Z,97646.59
2023-03-23T19:21:09.437Z,97647.75
2023-03-23T19:24:12.146Z,97644.63
2023-03-23T19:27:21.050Z,97644.94
2023-03-23T19:30:27.380Z,97635.44
2023-03-23T19:33:34.131Z,97649.69
2023-03-23T19:36:40.904Z,97643.88
2023-03-23T19:39:50.551Z,97654.50
2023-03-23T19:42:57.489Z,97655.47
2023-03-23T19:46:04.599Z,97636.81
2023-03-23T19:49:10.973Z,97651.16
2023-03-23T19:52:18.872Z,97651.47
2023-03-23T19:55:28.414Z,97655.94
2023-03-23T19:58:35.466Z,97669.34
2023-03-23T20:01:41.629Z,97652.38
2023-03-23T20:04:49.795Z,97662.53
2023-03-23T20:07:57.391Z,97667.41
2023-03-23T20:11:13.547Z,97670.50
2023-03-23T20:14:20.863Z,97673.31
2023-03-23T20:17:28.678Z,97675.28
2023-03-23T20:20:36.800Z,97695.22
2023-03-23T20:23:46.884Z,97697.03
2023-03-23T20:26:56.228Z,97698.19
2023-03-23T20:30:04.388Z,97712.75
2023-03-23T20:33:10.952Z,97713.06
2023-03-23T20:36:20.201Z,97710.00
2023-03-23T20:39:26.486Z,97712.56
2023-03-23T20:42:36.262Z,97716.81
2023-03-23T20:45:42.910Z,97703.72
2023-03-23T20:48:50.866Z,97704.97
2023-03-23T20:51:57.069Z,97697.84
2023-03-23T20:55:04.265Z,97692.00
2023-03-23T20:58:13.336Z,97693.22
2023-03-23T21:01:21.874Z,97696.84
2023-03-23T21:04:30.534Z,97694.50
2023-03-23T21:07:37.378Z,97694.81
2023-03-23T21:10:44.138Z,97689.19
2023-03-23T21:13:54.085Z,97690.84
2023-03-23T21:17:02.589Z,97687.53
2023-03-23T21:20:11.818Z,97686.13
2023-03-23T21:23:17.933Z,97696.75
2023-03-23T21:26:30.716Z,97699.63
2023-03-23T21:29:39.391Z,97705.50
2023-03-23T21:32:46.226Z,97695.09
2023-03-23T21:35:52.569Z,97710.03
2023-03-23T21:39:02.447Z,97707.97
2023-03-23T21:42:08.343Z,97688.31
2023-03-23T21:45:21.501Z,97704.50
2023-03-23T21:48:29.687Z,97698.09
2023-03-23T21:51:36.403Z,97709.53
2023-03-23T21:54:42.396Z,97707.56
2023-03-23T21:57:49.268Z,97705.38
2023-03-23T22:01:02.605Z,97717.50
2023-03-23T22:04:10.494Z,97708.19
2023-03-23T22:07:16.892Z,97711.50
2023-03-23T22:10:24.349Z,97714.28
2023-03-23T22:13:31.492Z,97707.28
2023-03-23T22:16:41.359Z,97710.63
2023-03-23T22:19:47.447Z,97707.00
2023-03-23T22:22:54.492Z,97704.50
2023-03-23T22:26:00.938Z,97710.72
2023-03-23T22:29:11.538Z,97706.41
2023-03-23T22:32:20.302Z,97701.69
2023-03-23T22:35:27.524Z,97707.22
2023-03-23T22:38:33.469Z,97694.81
2023-03-23T22:41:44.093Z,97693.56
2023-03-23T22:44:50.553Z,97692.34
2023-03-23T22:48:00.933Z,97711.63
2023-03-23T22:51:07.297Z,97697.97
2023-03-23T22:54:14.970Z,97695.59
2023-03-23T22:57:21.172Z,97693.69
2023-03-23T23:00:28.730Z,97686.44
2023-03-23T23:03:39.041Z,97697.03
2023-03-23T23:06:45.907Z,97698.16
2023-03-23T23:09:52.380Z,97694.00
2023-03-23T23:12:59.315Z,97695.63
2023-03-23T23:16:07.561Z,97694.28
2023-03-23T23:19:18.127Z,97695.34
2023-03-23T23:22:24.095Z,97694.97
2023-03-23T23:25:31.940Z,97702.75
2023-03-23T23:28:40.482Z,97708.50
2023-03-23T23:31:47.680Z,97700.41
2023-03-23T23:34:56.579Z,97711.44
2023-03-23T23:38:03.949Z,97706.56
2023-03-23T23:41:10.801Z,97706.25
2023-03-23T23:44:18.050Z,97697.03
2023-03-23T23:47:24.141Z,97711.78
2023-03-23T23:50:33.744Z,97704.78
2023-03-23T23:53:39.591Z,97705.31
2023-03-23T23:56:46.427Z,97698.34
2023-03-23T23:59:52.436Z,97715.34
